sensor_id;sensor_type;location;lat;lon;timestamp;P1;durP1;ratioP1;P2;durP2;ratioP2
59587;SDS011;45412;54.472;18.464;2023-02-16T00:00:35;84.50;;;30.90;;
59587;SDS011;45412;54.472;18.464;2023-02-16T00:03:37;65.10;;;23.70;;
59587;SDS011;45412;54.472;18.464;2023-02-16T00:06:27;87.10;;;31.30;;
59587;SDS011;45412;54.472;18.464;2023-02-16T00:09:16;79.70;;;28.90;;
59587;SDS011;45412;54.472;18.464;2023-02-16T00:12:07;82.80;;;32.40;;
59587;SDS011;45412;54.472;18.464;2023-02-16T00:15:23;83.60;;;31.20;;
59587;SDS011;45412;54.472;18.464;2023-02-16T00:18:16;82.30;;;31.00;;
59587;SDS011;45412;54.472;18.464;2023-02-16T00:21:05;84.40;;;30.50;;
59587;SDS011;45412;54.472;18.464;2023-02-16T00:23:53;84.80;;;30.70;;
59587;SDS011;45412;54.472;18.464;2023-02-16T00:26:41;85.00;;;30.40;;
59587;SDS011;45412;54.472;18.464;2023-02-16T00:29:33;79.40;;;27.90;;
59587;SDS011;45412;54.472;18.464;2023-02-16T00:32:23;79.70;;;28.70;;
59587;SDS011;45412;54.472;18.464;2023-02-16T00:35:15;83.00;;;31.10;;
59587;SDS011;45412;54.472;18.464;2023-02-16T00:38:04;91.50;;;32.30;;
59587;SDS011;45412;54.472;18.464;2023-02-16T00:40:52;84.90;;;31.00;;
59587;SDS011;45412;54.472;18.464;2023-02-16T00:43:40;79.90;;;28.60;;
59587;SDS011;45412;54.472;18.464;2023-02-16T00:46:28;82.60;;;30.50;;
59587;SDS011;45412;54.472;18.464;2023-02-16T00:49:18;86.70;;;31.00;;
59587;SDS011;45412;54.472;18.464;2023-02-16T00:52:39;86.60;;;30.50;;
59587;SDS011;45412;54.472;18.464;2023-02-16T00:55:33;87.80;;;30.80;;
59587;SDS011;45412;54.472;18.464;2023-02-16T00:58:24;69.80;;;24.30;;
59587;SDS011;45412;54.472;18.464;2023-02-16T01:01:16;80.90;;;28.50;;
59587;SDS011;45412;54.472;18.464;2023-02-16T01:04:07;78.40;;;29.10;;
59587;SDS011;45412;54.472;18.464;2023-02-16T01:07:11;87.30;;;29.50;;
59587;SDS011;45412;54.472;18.464;2023-02-16T01:10:18;82.60;;;28.40;;
59587;SDS011;45412;54.472;18.464;2023-02-16T01:13:28;82.40;;;28.80;;
59587;SDS011;45412;54.472;18.464;2023-02-16T01:16:20;91.30;;;32.00;;
59587;SDS011;45412;54.472;18.464;2023-02-16T01:19:11;89.50;;;32.10;;
59587;SDS011;45412;54.472;18.464;2023-02-16T01:21:59;84.40;;;29.40;;
59587;SDS011;45412;54.472;18.464;2023-02-16T01:24:48;94.20;;;33.40;;
59587;SDS011;45412;54.472;18.464;2023-02-16T01:27:36;84.00;;;30.10;;
59587;SDS011;45412;54.472;18.464;2023-02-16T01:30:25;79.50;;;28.10;;
59587;SDS011;45412;54.472;18.464;2023-02-16T01:33:13;78.80;;;27.30;;
59587;SDS011;45412;54.472;18.464;2023-02-16T01:36:02;91.50;;;31.50;;
59587;SDS011;45412;54.472;18.464;2023-02-16T01:38:51;85.00;;;28.50;;
59587;SDS011;45412;54.472;18.464;2023-02-16T01:41:57;92.90;;;31.50;;
59587;SDS011;45412;54.472;18.464;2023-02-16T01:44:58;83.40;;;30.50;;
59587;SDS011;45412;54.472;18.464;2023-02-16T01:47:53;74.60;;;26.30;;
59587;SDS011;45412;54.472;18.464;2023-02-16T01:54:40;81.20;;;27.40;;
59587;SDS011;45412;54.472;18.464;2023-02-16T01:57:51;91.70;;;31.10;;
59587;SDS011;45412;54.472;18.464;2023-02-16T02:03:38;86.50;;;29.70;;
59587;SDS011;45412;54.472;18.464;2023-02-16T02:06:45;88.20;;;30.30;;
59587;SDS011;45412;54.472;18.464;2023-02-16T02:09:44;98.70;;;33.50;;
59587;SDS011;45412;54.472;18.464;2023-02-16T02:12:52;79.20;;;26.20;;
59587;SDS011;45412;54.472;18.464;2023-02-16T02:15:48;100.10;;;32.10;;
59587;SDS011;45412;54.472;18.464;2023-02-16T02:18:37;75.90;;;27.50;;
59587;SDS011;45412;54.472;18.464;2023-02-16T02:25:18;82.70;;;28.10;;
59587;SDS011;45412;54.472;18.464;2023-02-16T02:28:14;71.90;;;25.30;;
59587;SDS011;45412;54.472;18.464;2023-02-16T02:34:37;90.20;;;31.00;;
59587;SDS011;45412;54.472;18.464;2023-02-16T02:37:54;98.00;;;33.30;;
59587;SDS011;45412;54.472;18.464;2023-02-16T02:43:59;83.50;;;27.50;;
59587;SDS011;45412;54.472;18.464;2023-02-16T02:46:53;81.80;;;27.50;;
59587;SDS011;45412;54.472;18.464;2023-02-16T02:49:51;89.40;;;29.30;;
59587;SDS011;45412;54.472;18.464;2023-02-16T02:52:40;90.30;;;30.80;;
59587;SDS011;45412;54.472;18.464;2023-02-16T02:55:28;87.10;;;29.60;;
59587;SDS011;45412;54.472;18.464;2023-02-16T02:58:38;88.50;;;31.20;;
59587;SDS011;45412;54.472;18.464;2023-02-16T03:01:49;84.90;;;29.80;;
59587;SDS011;45412;54.472;18.464;2023-02-16T03:04:40;83.40;;;29.20;;
59587;SDS011;45412;54.472;18.464;2023-02-16T03:07:33;93.80;;;32.90;;
59587;SDS011;45412;54.472;18.464;2023-02-16T03:10:35;79.70;;;28.50;;
59587;SDS011;45412;54.472;18.464;2023-02-16T03:13:49;83.60;;;29.00;;
59587;SDS011;45412;54.472;18.464;2023-02-16T03:16:47;83.20;;;29.10;;
59587;SDS011;45412;54.472;18.464;2023-02-16T03:20:00;73.10;;;25.30;;
59587;SDS011;45412;54.472;18.464;2023-02-16T03:23:11;87.40;;;29.50;;
59587;SDS011;45412;54.472;18.464;2023-02-16T03:26:18;89.30;;;31.70;;
59587;SDS011;45412;54.472;18.464;2023-02-16T03:29:25;96.30;;;31.90;;
59587;SDS011;45412;54.472;18.464;2023-02-16T03:32:13;88.70;;;32.00;;
59587;SDS011;45412;54.472;18.464;2023-02-16T03:35:02;95.50;;;32.60;;
59587;SDS011;45412;54.472;18.464;2023-02-16T03:37:51;88.50;;;30.50;;
59587;SDS011;45412;54.472;18.464;2023-02-16T03:40:39;74.40;;;26.40;;
59587;SDS011;45412;54.472;18.464;2023-02-16T03:43:30;75.00;;;27.00;;
59587;SDS011;45412;54.472;18.464;2023-02-16T03:46:19;62.20;;;22.50;;
59587;SDS011;45412;54.472;18.464;2023-02-16T03:49:07;66.20;;;22.70;;
59587;SDS011;45412;54.472;18.464;2023-02-16T03:51:54;81.60;;;27.70;;
59587;SDS011;45412;54.472;18.464;2023-02-16T03:54:42;83.90;;;28.60;;
59587;SDS011;45412;54.472;18.464;2023-02-16T03:57:30;71.20;;;25.00;;
59587;SDS011;45412;54.472;18.464;2023-02-16T04:00:18;85.30;;;28.90;;
59587;SDS011;45412;54.472;18.464;2023-02-16T04:03:07;86.80;;;28.70;;
59587;SDS011;45412;54.472;18.464;2023-02-16T04:05:58;84.40;;;29.00;;
59587;SDS011;45412;54.472;18.464;2023-02-16T04:08:46;80.80;;;26.70;;
59587;SDS011;45412;54.472;18.464;2023-02-16T04:11:34;81.10;;;28.80;;
59587;SDS011;45412;54.472;18.464;2023-02-16T04:14:41;64.10;;;24.20;;
59587;SDS011;45412;54.472;18.464;2023-02-16T04:17:30;77.60;;;27.20;;
59587;SDS011;45412;54.472;18.464;2023-02-16T04:20:21;70.30;;;25.80;;
59587;SDS011;45412;54.472;18.464;2023-02-16T04:23:10;86.90;;;28.10;;
59587;SDS011;45412;54.472;18.464;2023-02-16T04:25:59;87.90;;;29.20;;
59587;SDS011;45412;54.472;18.464;2023-02-16T04:28:47;67.80;;;22.80;;
59587;SDS011;45412;54.472;18.464;2023-02-16T04:31:35;72.10;;;24.40;;
59587;SDS011;45412;54.472;18.464;2023-02-16T04:34:24;78.00;;;27.00;;
59587;SDS011;45412;54.472;18.464;2023-02-16T04:37:13;81.70;;;28.50;;
59587;SDS011;45412;54.472;18.464;2023-02-16T04:40:02;86.40;;;27.90;;
59587;SDS011;45412;54.472;18.464;2023-02-16T04:42:52;71.00;;;26.20;;
59587;SDS011;45412;54.472;18.464;2023-02-16T04:45:40;79.70;;;28.10;;
59587;SDS011;45412;54.472;18.464;2023-02-16T04:48:28;79.70;;;28.10;;
59587;SDS011;45412;54.472;18.464;2023-02-16T04:51:16;84.40;;;28.50;;
59587;SDS011;45412;54.472;18.464;2023-02-16T04:54:04;81.60;;;26.30;;
59587;SDS011;45412;54.472;18.464;2023-02-16T04:56:52;71.20;;;23.70;;
59587;SDS011;45412;54.472;18.464;2023-02-16T04:59:40;63.00;;;21.20;;
59587;SDS011;45412;54.472;18.464;2023-02-16T05:02:29;72.40;;;24.10;;
59587;SDS011;45412;54.472;18.464;2023-02-16T05:05:18;88.30;;;29.10;;
59587;SDS011;45412;54.472;18.464;2023-02-16T05:08:05;89.10;;;28.70;;
59587;SDS011;45412;54.472;18.464;2023-02-16T05:10:53;93.60;;;30.10;;
59587;SDS011;45412;54.472;18.464;2023-02-16T05:14:00;80.10;;;28.80;;
59587;SDS011;45412;54.472;18.464;2023-02-16T05:17:18;66.90;;;23.50;;
59587;SDS011;45412;54.472;18.464;2023-02-16T05:20:09;78.90;;;28.00;;
59587;SDS011;45412;54.472;18.464;2023-02-16T05:22:57;71.40;;;23.90;;
59587;SDS011;45412;54.472;18.464;2023-02-16T05:25:45;65.40;;;23.60;;
59587;SDS011;45412;54.472;18.464;2023-02-16T05:28:33;62.60;;;23.90;;
59587;SDS011;45412;54.472;18.464;2023-02-16T05:31:22;80.70;;;26.20;;
59587;SDS011;45412;54.472;18.464;2023-02-16T05:34:11;81.30;;;27.40;;
59587;SDS011;45412;54.472;18.464;2023-02-16T05:37:00;64.80;;;22.90;;
59587;SDS011;45412;54.472;18.464;2023-02-16T05:39:48;74.50;;;25.60;;
59587;SDS011;45412;54.472;18.464;2023-02-16T05:42:37;66.20;;;22.70;;
59587;SDS011;45412;54.472;18.464;2023-02-16T05:45:25;74.80;;;25.70;;
59587;SDS011;45412;54.472;18.464;2023-02-16T05:48:13;67.30;;;25.30;;
59587;SDS011;45412;54.472;18.464;2023-02-16T05:51:01;69.20;;;23.50;;
59587;SDS011;45412;54.472;18.464;2023-02-16T05:53:50;66.50;;;23.50;;
59587;SDS011;45412;54.472;18.464;2023-02-16T05:56:37;70.50;;;24.30;;
59587;SDS011;45412;54.472;18.464;2023-02-16T05:59:25;59.40;;;22.20;;
59587;SDS011;45412;54.472;18.464;2023-02-16T06:02:13;66.30;;;22.90;;
59587;SDS011;45412;54.472;18.464;2023-02-16T06:05:02;74.10;;;25.10;;
59587;SDS011;45412;54.472;18.464;2023-02-16T06:07:50;73.20;;;23.30;;
59587;SDS011;45412;54.472;18.464;2023-02-16T06:10:38;77.40;;;26.00;;
59587;SDS011;45412;54.472;18.464;2023-02-16T06:13:26;72.10;;;24.40;;
59587;SDS011;45412;54.472;18.464;2023-02-16T06:16:14;78.70;;;27.60;;
59587;SDS011;45412;54.472;18.464;2023-02-16T06:19:03;77.50;;;25.70;;
59587;SDS011;45412;54.472;18.464;2023-02-16T06:21:51;75.00;;;23.60;;
59587;SDS011;45412;54.472;18.464;2023-02-16T06:24:39;70.10;;;24.20;;
59587;SDS011;45412;54.472;18.464;2023-02-16T06:27:28;59.80;;;21.00;;
59587;SDS011;45412;54.472;18.464;2023-02-16T06:30:16;63.90;;;22.30;;
59587;SDS011;45412;54.472;18.464;2023-02-16T06:33:06;54.30;;;18.60;;
59587;SDS011;45412;54.472;18.464;2023-02-16T06:35:54;71.90;;;23.90;;
59587;SDS011;45412;54.472;18.464;2023-02-16T06:38:42;74.10;;;26.50;;
59587;SDS011;45412;54.472;18.464;2023-02-16T06:41:30;75.00;;;23.70;;
59587;SDS011;45412;54.472;18.464;2023-02-16T06:44:18;80.10;;;27.20;;
59587;SDS011;45412;54.472;18.464;2023-02-16T06:47:06;77.30;;;26.30;;
59587;SDS011;45412;54.472;18.464;2023-02-16T06:49:54;76.30;;;26.40;;
59587;SDS011;45412;54.472;18.464;2023-02-16T06:52:44;73.50;;;24.40;;
59587;SDS011;45412;54.472;18.464;2023-02-16T06:55:32;77.50;;;26.90;;
59587;SDS011;45412;54.472;18.464;2023-02-16T06:58:23;63.90;;;22.60;;
59587;SDS011;45412;54.472;18.464;2023-02-16T07:01:10;61.90;;;21.00;;
59587;SDS011;45412;54.472;18.464;2023-02-16T07:03:59;66.20;;;23.10;;
59587;SDS011;45412;54.472;18.464;2023-02-16T07:06:47;72.10;;;24.80;;
59587;SDS011;45412;54.472;18.464;2023-02-16T07:09:35;72.40;;;25.30;;
59587;SDS011;45412;54.472;18.464;2023-02-16T07:12:23;68.60;;;23.70;;
59587;SDS011;45412;54.472;18.464;2023-02-16T07:15:11;73.70;;;25.20;;
59587;SDS011;45412;54.472;18.464;2023-02-16T07:17:59;71.90;;;26.00;;
59587;SDS011;45412;54.472;18.464;2023-02-16T07:20:47;69.20;;;24.40;;
59587;SDS011;45412;54.472;18.464;2023-02-16T07:23:35;55.10;;;18.80;;
59587;SDS011;45412;54.472;18.464;2023-02-16T07:26:23;66.60;;;23.80;;
59587;SDS011;45412;54.472;18.464;2023-02-16T07:29:11;65.80;;;21.60;;
59587;SDS011;45412;54.472;18.464;2023-02-16T07:31:59;70.30;;;24.70;;
59587;SDS011;45412;54.472;18.464;2023-02-16T07:34:48;68.90;;;23.50;;
59587;SDS011;45412;54.472;18.464;2023-02-16T07:37:36;66.10;;;21.50;;
59587;SDS011;45412;54.472;18.464;2023-02-16T07:40:23;68.40;;;22.60;;
59587;SDS011;45412;54.472;18.464;2023-02-16T07:43:12;62.70;;;20.90;;
59587;SDS011;45412;54.472;18.464;2023-02-16T07:46:00;70.40;;;25.90;;
59587;SDS011;45412;54.472;18.464;2023-02-16T07:48:49;71.40;;;26.10;;
59587;SDS011;45412;54.472;18.464;2023-02-16T07:51:38;52.50;;;20.10;;
59587;SDS011;45412;54.472;18.464;2023-02-16T07:54:26;69.80;;;23.80;;
59587;SDS011;45412;54.472;18.464;2023-02-16T07:57:15;66.20;;;21.70;;
59587;SDS011;45412;54.472;18.464;2023-02-16T08:00:03;63.10;;;23.20;;
59587;SDS011;45412;54.472;18.464;2023-02-16T08:03:01;63.90;;;21.60;;
59587;SDS011;45412;54.472;18.464;2023-02-16T08:05:50;56.30;;;19.00;;
59587;SDS011;45412;54.472;18.464;2023-02-16T08:08:38;66.40;;;25.30;;
59587;SDS011;45412;54.472;18.464;2023-02-16T08:11:26;66.50;;;21.60;;
59587;SDS011;45412;54.472;18.464;2023-02-16T08:14:16;57.70;;;20.50;;
59587;SDS011;45412;54.472;18.464;2023-02-16T08:17:05;59.40;;;22.10;;
59587;SDS011;45412;54.472;18.464;2023-02-16T08:19:54;54.30;;;21.30;;
59587;SDS011;45412;54.472;18.464;2023-02-16T08:22:42;64.50;;;22.20;;
59587;SDS011;45412;54.472;18.464;2023-02-16T08:25:33;51.60;;;18.00;;
59587;SDS011;45412;54.472;18.464;2023-02-16T08:28:21;62.00;;;21.80;;
59587;SDS011;45412;54.472;18.464;2023-02-16T08:31:17;59.20;;;22.00;;
59587;SDS011;45412;54.472;18.464;2023-02-16T08:34:13;55.90;;;20.80;;
59587;SDS011;45412;54.472;18.464;2023-02-16T08:37:06;61.00;;;22.60;;
59587;SDS011;45412;54.472;18.464;2023-02-16T08:39:54;62.30;;;22.40;;
59587;SDS011;45412;54.472;18.464;2023-02-16T08:42:42;54.00;;;20.30;;
59587;SDS011;45412;54.472;18.464;2023-02-16T08:45:30;61.20;;;23.40;;
59587;SDS011;45412;54.472;18.464;2023-02-16T08:48:18;63.50;;;23.10;;
59587;SDS011;45412;54.472;18.464;2023-02-16T08:51:06;52.40;;;19.40;;
59587;SDS011;45412;54.472;18.464;2023-02-16T08:53:56;51.40;;;18.80;;
59587;SDS011;45412;54.472;18.464;2023-02-16T08:56:47;44.20;;;17.10;;
59587;SDS011;45412;54.472;18.464;2023-02-16T08:59:35;54.00;;;20.50;;
59587;SDS011;45412;54.472;18.464;2023-02-16T09:02:24;55.40;;;20.50;;
59587;SDS011;45412;54.472;18.464;2023-02-16T09:05:12;55.40;;;20.30;;
59587;SDS011;45412;54.472;18.464;2023-02-16T09:08:00;54.50;;;19.80;;
59587;SDS011;45412;54.472;18.464;2023-02-16T09:10:48;57.60;;;20.60;;
59587;SDS011;45412;54.472;18.464;2023-02-16T09:13:36;51.70;;;18.30;;
59587;SDS011;45412;54.472;18.464;2023-02-16T09:16:25;54.60;;;21.30;;
59587;SDS011;45412;54.472;18.464;2023-02-16T09:19:17;54.90;;;21.90;;
59587;SDS011;45412;54.472;18.464;2023-02-16T09:22:07;53.20;;;20.40;;
59587;SDS011;45412;54.472;18.464;2023-02-16T09:24:55;59.80;;;22.10;;
59587;SDS011;45412;54.472;18.464;2023-02-16T09:27:43;60.60;;;21.90;;
59587;SDS011;45412;54.472;18.464;2023-02-16T09:30:32;48.50;;;18.90;;
59587;SDS011;45412;54.472;18.464;2023-02-16T09:33:21;48.90;;;18.40;;
59587;SDS011;45412;54.472;18.464;2023-02-16T09:36:10;55.40;;;21.20;;
59587;SDS011;45412;54.472;18.464;2023-02-16T09:39:00;52.70;;;21.30;;
59587;SDS011;45412;54.472;18.464;2023-02-16T09:42:03;56.10;;;21.20;;
59587;SDS011;45412;54.472;18.464;2023-02-16T09:45:12;50.60;;;19.20;;
59587;SDS011;45412;54.472;18.464;2023-02-16T09:48:03;52.90;;;20.70;;
59587;SDS011;45412;54.472;18.464;2023-02-16T09:50:51;51.40;;;21.30;;
59587;SDS011;45412;54.472;18.464;2023-02-16T09:53:41;50.60;;;19.30;;
59587;SDS011;45412;54.472;18.464;2023-02-16T09:56:39;50.60;;;20.90;;
59587;SDS011;45412;54.472;18.464;2023-02-16T10:02:39;50.70;;;22.10;;
59587;SDS011;45412;54.472;18.464;2023-02-16T10:09:16;48.20;;;21.20;;
59587;SDS011;45412;54.472;18.464;2023-02-16T10:12:08;48.70;;;21.50;;
59587;SDS011;45412;54.472;18.464;2023-02-16T10:15:16;52.00;;;22.80;;
59587;SDS011;45412;54.472;18.464;2023-02-16T10:18:29;48.20;;;21.10;;
59587;SDS011;45412;54.472;18.464;2023-02-16T10:21:24;49.40;;;22.20;;
59587;SDS011;45412;54.472;18.464;2023-02-16T10:24:15;50.90;;;21.20;;
59587;SDS011;45412;54.472;18.464;2023-02-16T10:27:06;45.60;;;21.40;;
59587;SDS011;45412;54.472;18.464;2023-02-16T10:29:59;58.00;;;26.10;;
59587;SDS011;45412;54.472;18.464;2023-02-16T10:43:15;45.40;;;22.20;;
59587;SDS011;45412;54.472;18.464;2023-02-16T10:46:10;46.70;;;22.40;;
59587;SDS011;45412;54.472;18.464;2023-02-16T10:49:14;43.70;;;21.40;;
59587;SDS011;45412;54.472;18.464;2023-02-16T10:52:04;42.10;;;21.20;;
59587;SDS011;45412;54.472;18.464;2023-02-16T10:54:54;46.50;;;22.00;;
59587;SDS011;45412;54.472;18.464;2023-02-16T10:57:42;44.00;;;21.40;;
59587;SDS011;45412;54.472;18.464;2023-02-16T11:03:50;45.70;;;23.00;;
59587;SDS011;45412;54.472;18.464;2023-02-16T11:06:39;42.70;;;20.60;;
59587;SDS011;45412;54.472;18.464;2023-02-16T11:09:28;50.30;;;24.70;;
59587;SDS011;45412;54.472;18.464;2023-02-16T11:12:29;43.00;;;21.70;;
59587;SDS011;45412;54.472;18.464;2023-02-16T11:18:07;41.20;;;21.40;;
59587;SDS011;45412;54.472;18.464;2023-02-16T11:21:14;48.20;;;23.90;;
59587;SDS011;45412;54.472;18.464;2023-02-16T11:24:03;45.30;;;22.80;;
59587;SDS011;45412;54.472;18.464;2023-02-16T11:30:18;44.70;;;22.50;;
59587;SDS011;45412;54.472;18.464;2023-02-16T11:33:26;48.80;;;24.80;;
59587;SDS011;45412;54.472;18.464;2023-02-16T11:36:47;48.70;;;25.00;;
59587;SDS011;45412;54.472;18.464;2023-02-16T11:39:40;49.40;;;24.80;;
59587;SDS011;45412;54.472;18.464;2023-02-16T11:42:46;47.00;;;23.60;;
59587;SDS011;45412;54.472;18.464;2023-02-16T11:45:36;41.40;;;22.40;;
59587;SDS011;45412;54.472;18.464;2023-02-16T11:48:27;47.70;;;24.70;;
59587;SDS011;45412;54.472;18.464;2023-02-16T11:51:32;42.30;;;22.80;;
59587;SDS011;45412;54.472;18.464;2023-02-16T11:54:21;42.60;;;23.10;;
59587;SDS011;45412;54.472;18.464;2023-02-16T11:57:10;39.30;;;20.50;;
59587;SDS011;45412;54.472;18.464;2023-02-16T12:00:22;40.80;;;22.20;;
59587;SDS011;45412;54.472;18.464;2023-02-16T12:13:23;42.10;;;22.30;;
59587;SDS011;45412;54.472;18.464;2023-02-16T12:16:35;41.20;;;21.10;;
59587;SDS011;45412;54.472;18.464;2023-02-16T12:22:39;38.30;;;22.60;;
59587;SDS011;45412;54.472;18.464;2023-02-16T12:25:41;41.10;;;22.60;;
59587;SDS011;45412;54.472;18.464;2023-02-16T12:39:43;40.80;;;22.00;;
59587;SDS011;45412;54.472;18.464;2023-02-16T12:42:53;47.30;;;25.60;;
59587;SDS011;45412;54.472;18.464;2023-02-16T12:46:17;49.00;;;27.10;;
59587;SDS011;45412;54.472;18.464;2023-02-16T12:49:21;49.80;;;26.00;;
59587;SDS011;45412;54.472;18.464;2023-02-16T12:52:36;52.50;;;28.90;;
59587;SDS011;45412;54.472;18.464;2023-02-16T12:55:43;51.00;;;27.60;;
59587;SDS011;45412;54.472;18.464;2023-02-16T12:58:45;49.50;;;27.80;;
59587;SDS011;45412;54.472;18.464;2023-02-16T13:01:39;53.70;;;29.60;;
59587;SDS011;45412;54.472;18.464;2023-02-16T13:04:37;57.20;;;28.80;;
59587;SDS011;45412;54.472;18.464;2023-02-16T13:07:34;57.50;;;31.10;;
59587;SDS011;45412;54.472;18.464;2023-02-16T13:10:34;56.90;;;31.60;;
59587;SDS011;45412;54.472;18.464;2023-02-16T13:13:26;56.60;;;30.70;;
59587;SDS011;45412;54.472;18.464;2023-02-16T13:16:25;51.90;;;28.50;;
59587;SDS011;45412;54.472;18.464;2023-02-16T13:19:24;60.80;;;32.30;;
59587;SDS011;45412;54.472;18.464;2023-02-16T13:32:47;52.30;;;26.80;;
59587;SDS011;45412;54.472;18.464;2023-02-16T13:43:25;54.80;;;28.50;;
59587;SDS011;45412;54.472;18.464;2023-02-16T13:46:33;56.20;;;29.20;;
59587;SDS011;45412;54.472;18.464;2023-02-16T13:49:32;55.30;;;26.50;;
59587;SDS011;45412;54.472;18.464;2023-02-16T13:52:42;57.60;;;28.20;;
59587;SDS011;45412;54.472;18.464;2023-02-16T13:55:35;61.00;;;29.30;;
59587;SDS011;45412;54.472;18.464;2023-02-16T13:58:27;57.30;;;28.70;;
59587;SDS011;45412;54.472;18.464;2023-02-16T14:10:07;56.10;;;29.00;;
59587;SDS011;45412;54.472;18.464;2023-02-16T14:13:03;64.50;;;30.10;;
59587;SDS011;45412;54.472;18.464;2023-02-16T14:16:07;63.10;;;31.70;;
59587;SDS011;45412;54.472;18.464;2023-02-16T14:19:24;64.50;;;32.70;;
59587;SDS011;45412;54.472;18.464;2023-02-16T14:22:16;64.70;;;31.50;;
59587;SDS011;45412;54.472;18.464;2023-02-16T14:31:17;68.00;;;32.90;;
59587;SDS011;45412;54.472;18.464;2023-02-16T14:34:23;63.70;;;31.20;;
59587;SDS011;45412;54.472;18.464;2023-02-16T14:40:12;59.60;;;29.10;;
59587;SDS011;45412;54.472;18.464;2023-02-16T14:56:46;67.70;;;30.50;;
59587;SDS011;45412;54.472;18.464;2023-02-16T14:59:49;66.00;;;30.70;;
59587;SDS011;45412;54.472;18.464;2023-02-16T15:02:41;63.70;;;32.30;;
59587;SDS011;45412;54.472;18.464;2023-02-16T15:05:42;74.00;;;34.70;;
59587;SDS011;45412;54.472;18.464;2023-02-16T15:08:42;75.00;;;35.20;;
59587;SDS011;45412;54.472;18.464;2023-02-16T15:11:36;74.50;;;35.00;;
59587;SDS011;45412;54.472;18.464;2023-02-16T15:14:59;73.10;;;34.30;;
59587;SDS011;45412;54.472;18.464;2023-02-16T15:17:49;86.40;;;37.30;;
59587;SDS011;45412;54.472;18.464;2023-02-16T15:20:37;88.20;;;39.30;;
59587;SDS011;45412;54.472;18.464;2023-02-16T15:23:28;90.20;;;39.80;;
59587;SDS011;45412;54.472;18.464;2023-02-16T15:26:24;89.80;;;38.30;;
59587;SDS011;45412;54.472;18.464;2023-02-16T15:29:24;93.10;;;39.60;;
59587;SDS011;45412;54.472;18.464;2023-02-16T15:32:14;83.70;;;37.20;;
59587;SDS011;45412;54.472;18.464;2023-02-16T15:35:12;83.20;;;36.80;;
59587;SDS011;45412;54.472;18.464;2023-02-16T15:38:21;89.40;;;40.00;;
59587;SDS011;45412;54.472;18.464;2023-02-16T15:41:14;77.90;;;35.60;;
59587;SDS011;45412;54.472;18.464;2023-02-16T15:44:30;84.00;;;37.70;;
59587;SDS011;45412;54.472;18.464;2023-02-16T15:47:24;73.80;;;35.90;;
59587;SDS011;45412;54.472;18.464;2023-02-16T15:50:13;77.50;;;36.60;;
59587;SDS011;45412;54.472;18.464;2023-02-16T15:53:01;80.20;;;37.80;;
59587;SDS011;45412;54.472;18.464;2023-02-16T15:55:50;73.90;;;33.20;;
59587;SDS011;45412;54.472;18.464;2023-02-16T15:58:38;75.50;;;34.90;;
59587;SDS011;45412;54.472;18.464;2023-02-16T16:01:29;77.30;;;35.20;;
59587;SDS011;45412;54.472;18.464;2023-02-16T16:04:23;81.00;;;36.90;;
59587;SDS011;45412;54.472;18.464;2023-02-16T16:07:30;73.30;;;34.10;;
59587;SDS011;45412;54.472;18.464;2023-02-16T16:10:31;70.90;;;32.30;;
59587;SDS011;45412;54.472;18.464;2023-02-16T16:13:25;85.90;;;40.00;;
59587;SDS011;45412;54.472;18.464;2023-02-16T16:16:15;84.50;;;38.40;;
59587;SDS011;45412;54.472;18.464;2023-02-16T16:19:16;85.80;;;37.90;;
59587;SDS011;45412;54.472;18.464;2023-02-16T16:22:39;83.70;;;37.90;;
59587;SDS011;45412;54.472;18.464;2023-02-16T16:25:50;72.40;;;33.50;;
59587;SDS011;45412;54.472;18.464;2023-02-16T16:28:39;73.90;;;34.00;;
59587;SDS011;45412;54.472;18.464;2023-02-16T16:34:35;66.80;;;30.60;;
59587;SDS011;45412;54.472;18.464;2023-02-16T16:37:34;76.40;;;35.70;;
59587;SDS011;45412;54.472;18.464;2023-02-16T16:40:25;79.00;;;35.50;;
59587;SDS011;45412;54.472;18.464;2023-02-16T16:43:21;83.60;;;35.80;;
59587;SDS011;45412;54.472;18.464;2023-02-16T16:46:20;78.80;;;36.20;;
59587;SDS011;45412;54.472;18.464;2023-02-16T16:49:12;86.20;;;39.30;;
59587;SDS011;45412;54.472;18.464;2023-02-16T16:52:03;94.40;;;41.30;;
59587;SDS011;45412;54.472;18.464;2023-02-16T16:54:53;86.50;;;38.00;;
59587;SDS011;45412;54.472;18.464;2023-02-16T16:57:42;81.70;;;38.10;;
59587;SDS011;45412;54.472;18.464;2023-02-16T17:00:34;91.70;;;41.30;;
59587;SDS011;45412;54.472;18.464;2023-02-16T17:03:25;89.30;;;38.20;;
59587;SDS011;45412;54.472;18.464;2023-02-16T17:06:14;86.70;;;38.90;;
59587;SDS011;45412;54.472;18.464;2023-02-16T17:09:04;78.60;;;35.60;;
59587;SDS011;45412;54.472;18.464;2023-02-16T17:11:52;89.70;;;39.40;;
59587;SDS011;45412;54.472;18.464;2023-02-16T17:14:41;86.90;;;40.30;;
59587;SDS011;45412;54.472;18.464;2023-02-16T17:17:30;82.60;;;38.20;;
59587;SDS011;45412;54.472;18.464;2023-02-16T17:20:18;85.70;;;40.60;;
59587;SDS011;45412;54.472;18.464;2023-02-16T17:23:13;82.20;;;37.70;;
59587;SDS011;45412;54.472;18.464;2023-02-16T17:26:03;75.20;;;33.80;;
59587;SDS011;45412;54.472;18.464;2023-02-16T17:28:53;85.70;;;38.30;;
59587;SDS011;45412;54.472;18.464;2023-02-16T17:31:41;89.80;;;40.50;;
59587;SDS011;45412;54.472;18.464;2023-02-16T17:34:29;85.60;;;38.30;;
59587;SDS011;45412;54.472;18.464;2023-02-16T17:37:18;84.50;;;40.30;;
59587;SDS011;45412;54.472;18.464;2023-02-16T17:40:15;79.00;;;37.30;;
59587;SDS011;45412;54.472;18.464;2023-02-16T17:43:10;88.60;;;38.90;;
59587;SDS011;45412;54.472;18.464;2023-02-16T17:45:59;72.20;;;36.20;;
59587;SDS011;45412;54.472;18.464;2023-02-16T17:48:52;88.90;;;40.20;;
59587;SDS011;45412;54.472;18.464;2023-02-16T17:51:44;87.70;;;40.00;;
59587;SDS011;45412;54.472;18.464;2023-02-16T17:54:32;94.90;;;41.30;;
59587;SDS011;45412;54.472;18.464;2023-02-16T17:57:21;87.50;;;39.20;;
59587;SDS011;45412;54.472;18.464;2023-02-16T18:00:12;94.20;;;43.20;;
59587;SDS011;45412;54.472;18.464;2023-02-16T18:03:05;97.60;;;41.80;;
59587;SDS011;45412;54.472;18.464;2023-02-16T18:05:54;75.20;;;35.00;;
59587;SDS011;45412;54.472;18.464;2023-02-16T18:08:42;88.40;;;41.00;;
59587;SDS011;45412;54.472;18.464;2023-02-16T18:11:31;85.80;;;39.70;;
59587;SDS011;45412;54.472;18.464;2023-02-16T18:14:19;83.00;;;39.20;;
59587;SDS011;45412;54.472;18.464;2023-02-16T18:17:07;87.30;;;41.10;;
59587;SDS011;45412;54.472;18.464;2023-02-16T18:19:58;79.70;;;36.30;;
59587;SDS011;45412;54.472;18.464;2023-02-16T18:22:46;88.50;;;40.40;;
59587;SDS011;45412;54.472;18.464;2023-02-16T18:25:36;90.30;;;39.90;;
59587;SDS011;45412;54.472;18.464;2023-02-16T18:28:28;85.60;;;39.20;;
59587;SDS011;45412;54.472;18.464;2023-02-16T18:31:18;97.60;;;44.80;;
59587;SDS011;45412;54.472;18.464;2023-02-16T18:34:08;71.80;;;34.70;;
59587;SDS011;45412;54.472;18.464;2023-02-16T18:36:57;84.00;;;39.00;;
59587;SDS011;45412;54.472;18.464;2023-02-16T18:39:45;87.90;;;40.90;;